createdAt,value
2023-03-01T00:00:47.159Z,36.54
2023-03-01T00:02:50.157Z,36.30
2023-03-01T00:04:51.712Z,36.38
2023-03-01T00:06:53.268Z,36.61
2023-03-01T00:08:55.040Z,36.76
2023-03-01T00:11:04.873Z,37.02
2023-03-01T00:13:06.467Z,37.09
2023-03-01T00:15:09.237Z,37.17
2023-03-01T00:17:10.857Z,37.15
2023-03-01T00:19:15.832Z,37.36
2023-03-01T00:21:18.086Z,37.10
2023-03-01T00:23:19.891Z,37.46
2023-03-01T00:25:21.437Z,37.30
2023-03-01T00:27:23.041Z,37.71
2023-03-01T00:29:25.499Z,37.61
2023-03-01T00:31:29.432Z,37.65
2023-03-01T00:33:31.254Z,37.58
2023-03-01T00:35:34.689Z,37.49
2023-03-01T00:37:36.308Z,37.64
2023-03-01T00:39:40.989Z,37.71
2023-03-01T00:41:43.126Z,37.70
2023-03-01T00:43:47.480Z,37.58
2023-03-01T00:45:49.270Z,37.74
2023-03-01T00:47:51.434Z,38.12
2023-03-01T00:49:53.157Z,38.62
2023-03-01T00:51:57.824Z,38.54
2023-03-01T00:54:01.157Z,39.06
2023-03-01T00:56:03.247Z,39.04
2023-03-01T00:58:04.909Z,39.34
2023-03-01T01:00:07.980Z,38.97
2023-03-01T01:02:09.550Z,39.72
2023-03-01T01:04:13.523Z,39.92
2023-03-01T01:06:19.517Z,40.67
2023-03-01T01:08:22.396Z,41.04
2023-03-01T01:10:23.987Z,40.98
2023-03-01T01:12:25.776Z,40.90
2023-03-01T01:14:27.622Z,41.58
2023-03-01T01:16:30.423Z,42.52
2023-03-01T01:18:32.202Z,42.98
2023-03-01T01:20:33.900Z,43.47
2023-03-01T01:22:35.617Z,43.97
2023-03-01T01:24:38.581Z,44.70
2023-03-01T01:26:40.133Z,44.54
2023-03-01T01:28:41.804Z,44.55
2023-03-01T01:30:43.548Z,44.61
2023-03-01T01:32:45.134Z,44.43
2023-03-01T01:34:46.769Z,43.99
2023-03-01T01:36:49.548Z,43.30
2023-03-01T01:38:51.470Z,43.85
2023-03-01T01:40:54.518Z,43.59
2023-03-01T01:42:56.116Z,44.03
2023-03-01T01:45:25.742Z,44.16
2023-03-01T01:47:27.886Z,43.45
2023-03-01T01:49:35.393Z,43.00
2023-03-01T01:51:41.209Z,42.64
2023-03-01T01:53:45.299Z,42.65
2023-03-01T01:55:52.584Z,42.50
2023-03-01T01:57:59.956Z,42.47
2023-03-01T02:00:06.190Z,42.30
2023-03-01T02:02:07.764Z,41.96
2023-03-01T02:04:09.407Z,42.29
2023-03-01T02:06:18.022Z,42.67
2023-03-01T02:08:21.092Z,42.72
2023-03-01T02:10:24.282Z,42.67
2023-03-01T02:12:26.889Z,42.77
2023-03-01T02:14:29.806Z,42.92
2023-03-01T02:16:31.960Z,42.80
2023-03-01T02:18:33.842Z,42.44
2023-03-01T02:20:44.221Z,42.57
2023-03-01T02:22:47.026Z,42.18
2023-03-01T02:24:58.132Z,42.15
2023-03-01T02:27:01.713Z,41.69
2023-03-01T02:29:05.306Z,41.81
2023-03-01T02:31:08.837Z,41.46
2023-03-01T02:33:10.471Z,41.52
2023-03-01T02:35:15.750Z,41.46
2023-03-01T02:37:18.518Z,41.32
2023-03-01T02:39:25.677Z,41.59
2023-03-01T02:41:31.977Z,41.62
2023-03-01T02:43:34.377Z,41.22
2023-03-01T02:45:37.309Z,40.78
2023-03-01T02:47:38.905Z,41.02
2023-03-01T02:49:40.432Z,40.89
2023-03-01T02:51:49.095Z,40.85
2023-03-01T02:54:00.288Z,40.60
2023-03-01T02:56:02.061Z,40.41
2023-03-01T02:58:04.536Z,40.30
2023-03-01T03:00:08.999Z,40.26
2023-03-01T03:02:22.452Z,40.29
2023-03-01T03:04:24.074Z,40.07
2023-03-01T03:06:25.685Z,40.03
2023-03-01T03:08:27.285Z,39.93
2023-03-01T03:10:31.465Z,39.85
2023-03-01T03:12:33.227Z,40.06
2023-03-01T03:14:34.815Z,40.08
2023-03-01T03:16:36.376Z,39.79
2023-03-01T03:18:39.278Z,40.12
2023-03-01T03:20:42.076Z,40.21
2023-03-01T03:22:43.643Z,40.17
2023-03-01T03:24:45.218Z,40.49
2023-03-01T03:26:46.821Z,40.47
2023-03-01T03:28:48.372Z,40.57
2023-03-01T03:30:49.918Z,40.64
2023-03-01T03:32:51.912Z,40.60
2023-03-01T03:34:54.789Z,40.48
2023-03-01T03:36:57.384Z,40.61
2023-03-01T03:38:58.978Z,40.87
2023-03-01T03:41:02.827Z,41.08
2023-03-01T03:43:08.260Z,41.14
2023-03-01T03:45:10.147Z,40.84
2023-03-01T03:47:11.693Z,40.87
2023-03-01T03:49:13.202Z,40.84
2023-03-01T03:51:18.181Z,40.78
2023-03-01T03:53:20.969Z,40.55
2023-03-01T03:55:22.536Z,40.74
2023-03-01T03:57:24.134Z,40.72
2023-03-01T03:59:25.781Z,40.35
2023-03-01T04:01:27.416Z,40.59
2023-03-01T04:03:30.866Z,40.39
2023-03-01T04:05:32.766Z,40.13
2023-03-01T04:07:35.952Z,40.20
2023-03-01T04:09:39.864Z,40.29
2023-03-01T04:11:41.368Z,40.38
2023-03-01T04:13:42.863Z,40.17
2023-03-01T04:15:44.511Z,40.23
2023-03-01T04:17:51.743Z,39.88
2023-03-01T04:19:53.331Z,40.00
2023-03-01T04:21:54.893Z,40.08
2023-03-01T04:23:57.863Z,39.99
2023-03-01T04:25:59.924Z,40.20
2023-03-01T04:28:01.489Z,40.40
2023-03-01T04:30:04.413Z,40.35
2023-03-01T04:32:06.095Z,40.60
2023-03-01T04:34:07.721Z,40.44
2023-03-01T04:36:10.028Z,40.58
2023-03-01T04:38:11.879Z,40.57
2023-03-01T04:40:14.988Z,40.45
2023-03-01T04:42:16.674Z,40.78
2023-03-01T04:44:18.260Z,40.84
2023-03-01T04:46:21.505Z,40.96
2023-03-01T04:48:23.137Z,41.13
2023-03-01T04:50:27.877Z,41.11
2023-03-01T04:52:29.438Z,41.38
2023-03-01T04:54:31.682Z,41.13
2023-03-01T04:56:34.522Z,41.31
2023-03-01T04:58:36.470Z,41.13
2023-03-01T05:00:38.364Z,41.33
2023-03-01T05:02:40.033Z,41.05
2023-03-01T05:04:41.793Z,41.13
2023-03-01T05:06:43.422Z,40.98
2023-03-01T05:08:45.346Z,41.20
2023-03-01T05:10:50.122Z,40.50
2023-03-01T05:12:53.053Z,41.03
2023-03-01T05:14:54.662Z,41.38
2023-03-01T05:16:56.446Z,40.82
2023-03-01T05:18:58.233Z,41.09
2023-03-01T05:21:03.896Z,41.10
2023-03-01T05:23:05.542Z,41.72
2023-03-01T05:25:07.807Z,41.66
2023-03-01T05:27:09.354Z,42.08
2023-03-01T05:29:12.645Z,42.55
2023-03-01T05:31:14.451Z,42.47
2023-03-01T05:33:16.065Z,42.41
2023-03-01T05:35:18.613Z,42.81
2023-03-01T05:37:20.231Z,43.27
2023-03-01T05:39:23.024Z,43.91
2023-03-01T05:41:24.664Z,43.68
2023-03-01T05:43:26.384Z,43.96
2023-03-01T05:45:29.295Z,44.36
2023-03-01T05:47:33.186Z,44.49
2023-03-01T05:49:35.040Z,45.12
2023-03-01T05:51:36.571Z,45.57
2023-03-01T05:53:38.127Z,45.84
2023-03-01T05:55:40.435Z,45.52
2023-03-01T05:57:42.139Z,45.63
2023-03-01T05:59:43.769Z,46.15
2023-03-01T06:01:46.774Z,46.32
2023-03-01T06:03:48.313Z,46.39
2023-03-01T06:05:49.998Z,46.56
2023-03-01T06:07:52.067Z,46.24
2023-03-01T06:09:53.599Z,46.28
2023-03-01T06:11:55.088Z,46.10
2023-03-01T06:13:56.579Z,45.57
2023-03-01T06:15:58.305Z,45.43
2023-03-01T06:18:01.416Z,45.78
2023-03-01T06:20:03.385Z,45.45
2023-03-01T06:22:04.945Z,44.60
2023-03-01T06:24:07.197Z,45.24
2023-03-01T06:26:09.385Z,45.09
2023-03-01T06:28:11.213Z,45.09
2023-03-01T06:30:15.614Z,45.24
2023-03-01T06:32:17.925Z,45.10
2023-03-01T06:34:20.943Z,45.20
2023-03-01T06:36:22.567Z,44.77
2023-03-01T06:38:24.523Z,44.67
2023-03-01T06:40:26.116Z,44.87
2023-03-01T06:42:27.643Z,44.86
2023-03-01T06:44:29.329Z,45.24
2023-03-01T06:46:32.069Z,45.09
2023-03-01T06:48:36.653Z,45.42
2023-03-01T06:50:39.600Z,45.56
2023-03-01T06:52:41.473Z,45.58
2023-03-01T06:54:43.051Z,45.83
2023-03-01T06:56:47.198Z,45.27
2023-03-01T06:58:48.740Z,45.62
2023-03-01T07:00:50.329Z,45.57
2023-03-01T07:02:52.060Z,45.56
2023-03-01T07:04:53.642Z,45.41
2023-03-01T07:06:56.514Z,45.39
2023-03-01T07:08:59.859Z,45.44
2023-03-01T07:11:01.529Z,45.28
2023-03-01T07:13:03.469Z,44.89
2023-03-01T07:15:06.269Z,44.74
2023-03-01T07:17:08.256Z,44.41
2023-03-01T07:19:15.540Z,44.17
2023-03-01T07:21:17.094Z,44.35
2023-03-01T07:23:21.531Z,44.07
2023-03-01T07:25:23.286Z,43.89
2023-03-01T07:27:24.988Z,43.75
2023-03-01T07:29:26.622Z,43.47
2023-03-01T07:31:28.303Z,43.21
2023-03-01T07:33:30.198Z,43.10
2023-03-01T07:35:31.821Z,43.38
2023-03-01T07:37:33.387Z,42.21
2023-03-01T07:39:36.266Z,42.41
2023-03-01T07:41:37.966Z,42.73
2023-03-01T07:43:39.599Z,42.38
2023-03-01T07:45:44.265Z,41.75
2023-03-01T07:47:46.074Z,41.71
2023-03-01T07:49:47.906Z,41.67
2023-03-01T07:51:49.462Z,41.61
2023-03-01T07:53:51.170Z,41.83
2023-03-01T07:56:03.498Z,41.44
2023-03-01T07:58:05.090Z,41.71
2023-03-01T08:00:08.175Z,41.38
2023-03-01T08:02:10.607Z,41.19
2023-03-01T08:04:12.221Z,41.27
2023-03-01T08:06:17.488Z,40.97
2023-03-01T08:08:19.523Z,41.05
2023-03-01T08:10:21.351Z,40.68
2023-03-01T08:12:24.316Z,40.75
2023-03-01T08:14:26.090Z,40.70
2023-03-01T08:16:27.715Z,40.63
2023-03-01T08:18:29.429Z,39.91
2023-03-01T08:20:31.080Z,39.58
2023-03-01T08:22:32.644Z,39.63
2023-03-01T08:24:34.244Z,39.86
2023-03-01T08:26:35.811Z,39.75
2023-03-01T08:28:39.472Z,39.31
2023-03-01T08:30:41.062Z,39.46
2023-03-01T08:32:42.724Z,39.60
2023-03-01T08:34:47.297Z,39.87
2023-03-01T08:36:49.101Z,39.11
2023-03-01T08:38:50.720Z,38.53
2023-03-01T08:40:52.346Z,38.73
2023-03-01T08:42:54.148Z,38.26
2023-03-01T08:44:57.138Z,38.51
2023-03-01T08:46:58.726Z,38.27
2023-03-01T08:49:00.939Z,37.70
2023-03-01T08:51:08.712Z,37.56
2023-03-01T08:53:10.298Z,37.60
2023-03-01T08:55:11.892Z,37.34
2023-03-01T08:57:13.484Z,37.73
2023-03-01T08:59:17.252Z,37.47
2023-03-01T09:01:20.228Z,36.98
2023-03-01T09:03:21.993Z,37.74
2023-03-01T09:05:23.562Z,36.74
2023-03-01T09:07:25.255Z,36.97
2023-03-01T09:09:26.858Z,36.75
2023-03-01T09:11:29.922Z,36.14
2023-03-01T09:13:31.743Z,35.69
2023-03-01T09:15:33.654Z,35.95
2023-03-01T09:17:37.057Z,36.06
2023-03-01T09:19:38.756Z,35.59
2023-03-01T09:21:41.419Z,36.12
2023-03-01T09:23:44.632Z,35.73
2023-03-01T09:25:46.236Z,35.01
2023-03-01T09:27:51.705Z,35.13
2023-03-01T09:29:53.353Z,35.20
2023-03-01T09:31:55.068Z,34.85
2023-03-01T09:33:58.119Z,34.95
2023-03-01T09:36:01.944Z,35.30
2023-03-01T09:38:03.524Z,34.54
2023-03-01T09:40:07.327Z,34.30
2023-03-01T09:42:13.427Z,33.73
2023-03-01T09:44:24.853Z,33.13
2023-03-01T09:46:27.812Z,33.97
2023-03-01T09:48:34.054Z,33.06
2023-03-01T09:50:42.311Z,33.32
2023-03-01T09:52:48.410Z,33.06
2023-03-01T09:54:54.837Z,32.99
2023-03-01T09:57:16.119Z,33.04
2023-03-01T09:59:26.662Z,32.59
2023-03-01T10:01:33.215Z,32.49
2023-03-01T10:03:41.027Z,32.03
2023-03-01T10:05:54.572Z,31.37
2023-03-01T10:08:07.132Z,31.42
2023-03-01T10:10:17.111Z,32.13
2023-03-01T10:12:21.535Z,31.59
2023-03-01T10:14:34.151Z,31.60
2023-03-01T10:16:43.348Z,31.91
2023-03-01T10:18:49.899Z,31.43
2023-03-01T10:20:57.153Z,31.10
2023-03-01T10:22:58.722Z,31.31
2023-03-01T10:25:04.322Z,30.44
2023-03-01T10:27:10.089Z,30.75
2023-03-01T10:29:13.213Z,30.53
2023-03-01T10:31:20.093Z,30.59
2023-03-01T10:33:24.382Z,30.51
2023-03-01T10:35:29.542Z,29.82
2023-03-01T10:37:32.551Z,29.23
2023-03-01T10:39:35.091Z,29.39
2023-03-01T10:41:52.531Z,28.93
2023-03-01T10:43:57.789Z,29.47
2023-03-01T10:45:59.402Z,29.31
2023-03-01T10:48:12.233Z,29.39
2023-03-01T10:50:21.049Z,27.90
2023-03-01T10:52:24.831Z,29.08
2023-03-01T10:54:31.173Z,28.83
2023-03-01T10:56:47.701Z,27.70
2023-03-01T10:58:58.874Z,28.14
2023-03-01T11:01:02.483Z,28.50
2023-03-01T11:03:12.208Z,28.25
2023-03-01T11:05:23.617Z,28.18
2023-03-01T11:07:25.274Z,29.61
2023-03-01T11:09:32.525Z,28.23
2023-03-01T11:11:35.781Z,27.69
2023-03-01T11:13:55.909Z,27.15
2023-03-01T11:16:02.240Z,26.59
2023-03-01T11:18:13.814Z,26.73
2023-03-01T11:20:26.278Z,26.24
2023-03-01T11:22:29.753Z,25.92
2023-03-01T11:24:41.721Z,25.78
2023-03-01T11:26:48.646Z,25.97
2023-03-01T11:28:55.807Z,26.28
2023-03-01T11:31:08.626Z,27.67
2023-03-01T11:33:18.736Z,25.96
2023-03-01T11:35:23.957Z,25.51
2023-03-01T11:37:35.850Z,24.79
2023-03-01T11:39:44.808Z,25.75
2023-03-01T11:41:50.784Z,26.18
2023-03-01T11:43:57.138Z,25.90
2023-03-01T11:46:28.143Z,25.08
2023-03-01T11:48:49.967Z,25.24
2023-03-01T11:50:53.265Z,24.67
2023-03-01T11:53:19.082Z,24.38
2023-03-01T11:55:33.659Z,25.47
2023-03-01T11:57:50.585Z,25.16
2023-03-01T12:00:15.702Z,24.53
2023-03-01T12:02:53.284Z,25.28
2023-03-01T12:05:21.527Z,25.49
2023-03-01T12:07:32.845Z,25.18
2023-03-01T12:09:52.632Z,24.54
2023-03-01T12:12:13.354Z,24.66
2023-03-01T12:14:37.722Z,25.57
2023-03-01T12:16:58.577Z,25.51
2023-03-01T12:19:23.467Z,25.56
2023-03-01T12:21:40.620Z,24.98
2023-03-01T12:24:16.518Z,25.42
2023-03-01T12:26:24.547Z,26.83
2023-03-01T12:28:51.050Z,25.51
2023-03-01T12:31:08.017Z,25.33
2023-03-01T12:33:21.904Z,26.29
2023-03-01T12:35:55.125Z,26.05
2023-03-01T12:38:07.585Z,26.20
2023-03-01T12:40:43.604Z,25.77
2023-03-01T12:42:53.849Z,26.30
2023-03-01T12:45:15.511Z,26.02
2023-03-01T12:47:38.643Z,26.10
2023-03-01T12:49:43.231Z,26.46
2023-03-01T12:51:51.417Z,25.78
2023-03-01T12:53:55.645Z,26.50
2023-03-01T12:56:01.876Z,26.57
2023-03-01T12:58:18.808Z,26.48
2023-03-01T13:00:32.198Z,26.39
2023-03-01T13:02:42.228Z,25.89
2023-03-01T13:04:59.094Z,25.87
2023-03-01T13:07:12.451Z,25.99
2023-03-01T13:09:24.762Z,26.04
2023-03-01T13:11:26.352Z,26.47
2023-03-01T13:13:29.171Z,26.44
2023-03-01T13:15:36.670Z,27.25
2023-03-01T13:17:45.641Z,27.75
2023-03-01T13:19:57.373Z,27.89
2023-03-01T13:22:00.150Z,27.21
2023-03-01T13:24:01.852Z,27.40
2023-03-01T13:26:12.255Z,27.32
2023-03-01T13:28:40.143Z,27.68
2023-03-01T13:30:43.755Z,27.71
2023-03-01T13:32:45.493Z,27.37
2023-03-01T13:34:55.118Z,27.63
2023-03-01T13:37:11.286Z,28.18
2023-03-01T13:39:30.620Z,29.06
2023-03-01T13:41:53.261Z,28.36
2023-03-01T13:43:54.911Z,28.46
2023-03-01T13:45:59.078Z,28.29
2023-03-01T13:48:05.421Z,28.44
2023-03-01T13:50:07.779Z,28.73
2023-03-01T13:52:31.543Z,29.06
2023-03-01T13:54:34.152Z,29.19
2023-03-01T13:56:38.541Z,29.40
2023-03-01T13:58:50.479Z,29.56
2023-03-01T14:01:02.548Z,29.18
2023-03-01T14:03:12.604Z,29.12
2023-03-01T14:05:14.167Z,29.11
2023-03-01T14:07:20.829Z,28.88
2023-03-01T14:09:25.926Z,28.79
2023-03-01T14:12:07.540Z,28.47
2023-03-01T14:14:27.290Z,28.64
2023-03-01T14:16:41.912Z,29.18
2023-03-01T14:18:53.189Z,29.13
2023-03-01T14:20:55.390Z,28.94
2023-03-01T14:22:59.620Z,29.21
2023-03-01T14:25:03.825Z,29.08
2023-03-01T14:27:05.517Z,29.70
2023-03-01T14:29:07.201Z,29.53
2023-03-01T14:31:38.488Z,29.29
2023-03-01T14:33:58.432Z,29.18
2023-03-01T14:36:02.285Z,29.01
2023-03-01T14:38:04.259Z,28.96
2023-03-01T14:40:20.629Z,29.05
2023-03-01T14:42:24.257Z,28.94
2023-03-01T14:44:25.961Z,28.82
2023-03-01T14:46:32.985Z,29.07
2023-03-01T14:48:36.222Z,29.31
2023-03-01T14:50:42.854Z,28.85
2023-03-01T14:52:48.086Z,29.01
2023-03-01T14:54:52.441Z,28.82
2023-03-01T14:57:00.953Z,28.82
2023-03-01T14:59:02.751Z,28.70
2023-03-01T15:01:05.736Z,28.76
2023-03-01T15:03:12.295Z,28.81
2023-03-01T15:05:17.276Z,29.05
2023-03-01T15:07:20.070Z,29.61
2023-03-01T15:09:22.945Z,29.48
2023-03-01T15:11:29.289Z,29.84
2023-03-01T15:13:33.076Z,29.48
2023-03-01T15:15:38.674Z,29.57
2023-03-01T15:17:40.562Z,29.36
2023-03-01T15:19:42.182Z,29.46
2023-03-01T15:21:49.597Z,29.43
2023-03-01T15:23:54.528Z,29.61
2023-03-01T15:25:57.580Z,29.56
2023-03-01T15:28:01.535Z,29.59
2023-03-01T15:30:04.619Z,29.57
2023-03-01T15:32:08.064Z,29.35
2023-03-01T15:34:21.194Z,29.75
2023-03-01T15:36:40.095Z,29.38
2023-03-01T15:38:54.913Z,29.39
2023-03-01T15:40:57.590Z,29.70
2023-03-01T15:42:59.502Z,29.61
2023-03-01T15:45:09.853Z,29.59
2023-03-01T15:47:28.584Z,29.96
2023-03-01T15:49:49.515Z,29.69
2023-03-01T15:51:55.884Z,29.31
2023-03-01T15:54:04.627Z,29.66
2023-03-01T15:56:06.938Z,29.95
2023-03-01T15:58:20.644Z,29.66
2023-03-01T16:00:22.636Z,29.81
2023-03-01T16:02:27.181Z,29.54
2023-03-01T16:04:28.834Z,29.45
2023-03-01T16:06:33.808Z,29.21
2023-03-01T16:08:35.733Z,29.64
2023-03-01T16:10:39.177Z,29.25
2023-03-01T16:12:40.714Z,29.25
2023-03-01T16:14:45.371Z,29.30
2023-03-01T16:16:47.533Z,29.21
2023-03-01T16:18:49.121Z,29.14
2023-03-01T16:20:52.049Z,29.51
2023-03-01T16:22:54.728Z,29.89
2023-03-01T16:24:56.333Z,29.79
2023-03-01T16:26:59.448Z,29.32
2023-03-01T16:29:01.382Z,29.58
2023-03-01T16:31:06.010Z,29.33
2023-03-01T16:33:24.457Z,29.31
2023-03-01T16:35:30.892Z,29.32
2023-03-01T16:37:36.319Z,29.48
2023-03-01T16:39:39.340Z,29.02
2023-03-01T16:41:41.166Z,28.92
2023-03-01T16:43:44.817Z,29.10
2023-03-01T16:45:48.711Z,29.33
2023-03-01T16:47:50.606Z,29.25
2023-03-01T16:49:55.651Z,29.23
2023-03-01T16:51:57.259Z,29.18
2023-03-01T16:54:01.513Z,29.36
2023-03-01T16:56:05.846Z,29.38
2023-03-01T16:58:08.905Z,29.20
2023-03-01T17:00:14.473Z,29.20
2023-03-01T17:02:18.072Z,29.43
2023-03-01T17:04:20.320Z,29.51
2023-03-01T17:06:22.434Z,29.87
2023-03-01T17:08:23.941Z,29.90
2023-03-01T17:10:25.589Z,29.71
2023-03-01T17:12:27.269Z,29.83
2023-03-01T17:14:28.755Z,30.07
2023-03-01T17:16:31.780Z,30.30
2023-03-01T17:18:33.897Z,30.51
2023-03-01T17:20:36.490Z,30.50
2023-03-01T17:22:38.141Z,30.32
2023-03-01T17:24:43.082Z,30.89
2023-03-01T17:26:44.715Z,30.58
2023-03-01T17:28:46.437Z,30.19
2023-03-01T17:30:50.053Z,30.35
2023-03-01T17:32:53.110Z,30.36
2023-03-01T17:34:54.732Z,30.31
2023-03-01T17:36:56.299Z,30.66
2023-03-01T17:38:57.852Z,30.51
2023-03-01T17:41:00.442Z,30.61
2023-03-01T17:43:02.139Z,30.15
2023-03-01T17:45:04.337Z,29.90
2023-03-01T17:47:06.174Z,30.23
2023-03-01T17:49:09.198Z,30.17
2023-03-01T17:51:11.574Z,30.09
2023-03-01T17:53:13.353Z,30.08
2023-03-01T17:55:14.978Z,30.25
2023-03-01T17:57:16.632Z,30.29
2023-03-01T17:59:18.278Z,30.72
2023-03-01T18:01:21.387Z,30.92
2023-03-01T18:03:23.039Z,30.91
2023-03-01T18:05:27.997Z,31.21
2023-03-01T18:07:30.181Z,31.13
2023-03-01T18:09:31.726Z,31.35
2023-03-01T18:11:34.600Z,31.61
2023-03-01T18:13:36.359Z,31.55
2023-03-01T18:15:37.906Z,31.39
2023-03-01T18:17:39.655Z,31.48
2023-03-01T18:19:41.320Z,31.74
2023-03-01T18:21:44.272Z,31.79
2023-03-01T18:23:45.913Z,31.67
2023-03-01T18:25:47.519Z,31.80
2023-03-01T18:27:49.233Z,31.86
2023-03-01T18:29:50.889Z,32.07
2023-03-01T18:31:52.790Z,32.25
2023-03-01T18:33:54.976Z,32.69
2023-03-01T18:35:57.150Z,32.41
2023-03-01T18:38:00.116Z,32.56
2023-03-01T18:40:01.707Z,32.76
2023-03-01T18:42:03.547Z,32.58
2023-03-01T18:44:05.416Z,32.43
2023-03-01T18:46:07.473Z,32.54
2023-03-01T18:48:09.107Z,32.85
2023-03-01T18:50:11.728Z,32.82
2023-03-01T18:52:13.301Z,33.01
2023-03-01T18:54:16.497Z,33.32
2023-03-01T18:56:18.071Z,32.96
2023-03-01T18:58:22.260Z,33.31
2023-03-01T19:00:24.590Z,33.26
2023-03-01T19:02:26.363Z,33.35
2023-03-01T19:04:28.054Z,33.04
2023-03-01T19:06:31.559Z,33.45
2023-03-01T19:08:33.867Z,33.29
2023-03-01T19:10:36.884Z,33.91
2023-03-01T19:12:38.599Z,33.83
2023-03-01T19:14:40.168Z,33.86
2023-03-01T19:16:41.840Z,34.10
2023-03-01T19:18:45.469Z,33.96
2023-03-01T19:20:50.592Z,33.93
2023-03-01T19:22:52.386Z,34.21
2023-03-01T19:24:54.211Z,34.24
2023-03-01T19:26:57.344Z,34.73
2023-03-01T19:28:59.623Z,34.15
2023-03-01T19:31:02.864Z,34.78
2023-03-01T19:33:04.453Z,34.88
2023-03-01T19:35:07.194Z,34.58
2023-03-01T19:37:09.019Z,34.38
2023-03-01T19:39:12.317Z,34.73
2023-03-01T19:41:16.264Z,34.62
2023-03-01T19:43:19.374Z,34.89
2023-03-01T19:45:32.937Z,34.85
2023-03-01T19:47:35.045Z,34.57
2023-03-01T19:49:36.656Z,34.27
2023-03-01T19:51:38.314Z,34.30
2023-03-01T19:53:40.926Z,34.22
2023-03-01T19:55:42.848Z,34.21
2023-03-01T19:57:44.556Z,34.22
2023-03-01T19:59:47.488Z,34.25
2023-03-01T20:01:49.501Z,33.90
2023-03-01T20:03:51.084Z,34.21
2023-03-01T20:05:52.965Z,34.27
2023-03-01T20:07:55.002Z,34.28
2023-03-01T20:09:56.548Z,34.14
2023-03-01T20:11:58.139Z,34.43
2023-03-01T20:13:59.677Z,34.27
2023-03-01T20:16:03.157Z,33.96
2023-03-01T20:18:05.358Z,35.08
2023-03-01T20:20:07.923Z,35.31
2023-03-01T20:22:09.563Z,35.28
2023-03-01T20:24:12.426Z,35.46
2023-03-01T20:26:15.181Z,35.78
2023-03-01T20:28:19.035Z,35.59
2023-03-01T20:30:20.722Z,35.26
2023-03-01T20:32:23.755Z,35.50
2023-03-01T20:34:25.525Z,35.93
2023-03-01T20:36:30.206Z,35.35
2023-03-01T20:38:32.504Z,35.38
2023-03-01T20:40:34.065Z,35.36
2023-03-01T20:42:35.667Z,35.58
2023-03-01T20:44:37.413Z,36.00
2023-03-01T20:46:39.308Z,36.13
2023-03-01T20:48:43.089Z,36.03
2023-03-01T20:50:45.228Z,35.82
2023-03-01T20:52:47.991Z,36.10
2023-03-01T20:54:49.676Z,36.58
2023-03-01T20:56:51.274Z,36.51
2023-03-01T20:58:54.640Z,36.98
2023-03-01T21:00:56.483Z,36.79
2023-03-01T21:02:58.240Z,36.88
2023-03-01T21:05:01.184Z,36.71
2023-03-01T21:07:02.828Z,36.85
2023-03-01T21:09:04.913Z,36.93
2023-03-01T21:11:07.447Z,37.27
2023-03-01T21:13:09.271Z,37.08
2023-03-01T21:15:15.121Z,37.15
2023-03-01T21:17:22.243Z,36.93
2023-03-01T21:19:25.883Z,37.18
2023-03-01T21:21:29.096Z,37.03
2023-03-01T21:23:32.397Z,37.08
2023-03-01T21:25:33.957Z,37.07
2023-03-01T21:27:38.915Z,36.46
2023-03-01T21:29:42.660Z,36.75
2023-03-01T21:31:44.270Z,36.57
2023-03-01T21:33:48.254Z,36.56
2023-03-01T21:35:49.828Z,36.25
2023-03-01T21:37:52.915Z,36.00
2023-03-01T21:39:54.521Z,36.24
2023-03-01T21:41:58.102Z,36.72
2023-03-01T21:44:02.249Z,36.48
2023-03-01T21:46:05.421Z,36.55
2023-03-01T21:48:07.021Z,36.78
2023-03-01T21:50:10.001Z,36.97
2023-03-01T21:52:11.593Z,37.05
2023-03-01T21:54:16.687Z,37.25
2023-03-01T21:56:19.567Z,37.07
2023-03-01T21:58:21.323Z,37.47
2023-03-01T22:00:23.241Z,37.11
2023-03-01T22:02:24.838Z,36.88
2023-03-01T22:04:26.421Z,36.68
2023-03-01T22:06:29.930Z,37.00
2023-03-01T22:08:31.642Z,36.65
2023-03-01T22:10:39.496Z,36.58
2023-03-01T22:12:41.098Z,36.49
2023-03-01T22:14:45.687Z,36.54
2023-03-01T22:16:48.831Z,36.69
2023-03-01T22:18:51.337Z,36.79
2023-03-01T22:20:52.920Z,36.77
2023-03-01T22:22:54.485Z,36.60
2023-03-01T22:24:56.201Z,36.72
2023-03-01T22:27:02.218Z,37.00
2023-03-01T22:29:06.095Z,36.91
2023-03-01T22:31:07.633Z,36.71
2023-03-01T22:33:09.694Z,36.77
2023-03-01T22:35:11.973Z,36.61
2023-03-01T22:37:14.235Z,36.93
2023-03-01T22:39:18.174Z,36.59
2023-03-01T22:41:19.606Z,36.67
2023-03-01T22:43:22.504Z,36.43
2023-03-01T22:45:24.605Z,36.52
2023-03-01T22:47:26.313Z,36.47
2023-03-01T22:49:27.973Z,36.21
2023-03-01T22:51:32.250Z,36.62
2023-03-01T22:53:34.191Z,36.49
2023-03-01T22:55:38.230Z,36.54
2023-03-01T22:57:39.772Z,36.57
2023-03-01T22:59:42.787Z,36.99
2023-03-01T23:01:47.730Z,36.68
2023-03-01T23:03:50.625Z,36.21
2023-03-01T23:05:52.327Z,36.34
2023-03-01T23:07:53.972Z,36.41
2023-03-01T23:09:55.584Z,36.51
2023-03-01T23:11:58.147Z,36.59
2023-03-01T23:13:59.645Z,36.57
2023-03-01T23:16:02.552Z,36.60
2023-03-01T23:18:04.329Z,36.43
2023-03-01T23:20:06.966Z,36.76
2023-03-01T23:22:08.459Z,36.74
2023-03-01T23:24:10.175Z,36.70
2023-03-01T23:26:11.722Z,37.00
2023-03-01T23:28:13.218Z,36.78
2023-03-01T23:30:15.133Z,36.76
2023-03-01T23:32:18.115Z,36.92
2023-03-01T23:34:19.767Z,37.11
2023-03-01T23:36:22.972Z,36.94
2023-03-01T23:38:24.553Z,36.80
2023-03-01T23:40:26.088Z,36.94
2023-03-01T23:42:27.690Z,36.82
2023-03-01T23:44:29.263Z,37.20
2023-03-01T23:46:32.803Z,37.11
2023-03-01T23:48:35.924Z,36.93
2023-03-01T23:50:39.436Z,37.02
2023-03-01T23:52:40.966Z,37.07
2023-03-01T23:54:43.151Z,37.35
2023-03-01T23:56:45.891Z,37.20
2023-03-01T23:58:47.405Z,37.25
